createdAt,value
2018-04-22T00:00:20.174Z,5.35
2018-04-22T00:02:48.356Z,5.28
2018-04-22T00:05:16.455Z,6.22
2018-04-22T00:07:44.655Z,5.35
2018-04-22T00:10:12.846Z,5.90
2018-04-22T00:12:41.239Z,5.20
2018-04-22T00:15:09.530Z,5.95
2018-04-22T00:17:37.719Z,5.40
2018-04-22T00:20:06.022Z,5.45
2018-04-22T00:22:34.226Z,5.60
2018-04-22T00:25:03.034Z,5.30
2018-04-22T00:27:31.226Z,5.50
2018-04-22T00:29:59.521Z,5.90
2018-04-22T00:32:27.716Z,5.65
2018-04-22T00:34:55.810Z,5.25
2018-04-22T00:37:24.000Z,5.68
2018-04-22T00:39:52.761Z,6.30
2018-04-22T00:42:21.097Z,4.70
2018-04-22T00:44:49.184Z,5.60
2018-04-22T00:47:17.396Z,5.53
2018-04-22T00:49:45.579Z,5.07
2018-04-22T00:52:13.892Z,4.70
2018-04-22T00:54:42.187Z,6.00
2018-04-22T00:57:10.465Z,5.60
2018-04-22T00:59:39.073Z,5.45
2018-04-22T01:02:07.489Z,6.62
2018-04-22T01:04:35.662Z,5.72
2018-04-22T01:07:03.856Z,5.47
2018-04-22T01:09:31.966Z,5.60
2018-04-22T01:12:00.145Z,5.75
2018-04-22T01:14:29.667Z,5.47
2018-04-22T01:16:57.704Z,5.43
2018-04-22T01:19:25.764Z,4.85
2018-04-22T01:21:53.943Z,4.40
2018-04-22T01:24:22.040Z,5.75
2018-04-22T01:26:50.243Z,5.50
2018-04-22T01:29:18.443Z,5.35
2018-04-22T01:31:46.742Z,5.55
2018-04-22T01:34:15.027Z,5.57
2018-04-22T01:36:43.380Z,6.03
2018-04-22T01:39:11.625Z,5.60
2018-04-22T01:41:39.825Z,4.78
2018-04-22T01:44:08.026Z,5.40
2018-04-22T01:46:36.306Z,5.62
2018-04-22T01:49:04.511Z,5.78
2018-04-22T01:51:32.707Z,5.40
2018-04-22T01:54:00.888Z,5.65
2018-04-22T01:56:28.985Z,5.60
2018-04-22T01:58:57.102Z,5.80
2018-04-22T02:01:25.169Z,5.62
2018-04-22T02:03:53.369Z,5.80
2018-04-22T02:06:21.466Z,6.12
2018-04-22T02:08:49.648Z,6.18
2018-04-22T02:11:17.943Z,5.50
2018-04-22T02:13:46.132Z,6.25
2018-04-22T02:16:14.222Z,6.07
2018-04-22T02:18:42.428Z,5.68
2018-04-22T02:21:10.521Z,5.80
2018-04-22T02:23:38.706Z,5.93
2018-04-22T02:26:07.010Z,5.80
2018-04-22T02:28:35.207Z,5.50
2018-04-22T02:31:03.304Z,6.10
2018-04-22T02:33:31.489Z,5.45
2018-04-22T02:35:59.685Z,5.00
2018-04-22T02:38:27.882Z,6.30
2018-04-22T02:40:55.970Z,6.47
2018-04-22T02:43:24.125Z,5.57
2018-04-22T02:45:52.079Z,6.65
2018-04-22T02:48:20.245Z,7.05
2018-04-22T02:50:48.346Z,6.00
2018-04-22T02:53:16.623Z,5.25
2018-04-22T02:55:44.728Z,6.28
2018-04-22T02:58:13.130Z,6.78
2018-04-22T03:00:41.217Z,6.00
2018-04-22T03:03:09.517Z,5.65
2018-04-22T03:05:37.603Z,5.70
2018-04-22T03:08:05.801Z,6.85
2018-04-22T03:10:33.883Z,6.30
2018-04-22T03:13:02.090Z,6.00
2018-04-22T03:15:30.182Z,5.32
2018-04-22T03:17:58.372Z,6.75
2018-04-22T03:20:26.886Z,6.70
2018-04-22T03:22:55.063Z,6.62
2018-04-22T03:25:23.267Z,6.35
2018-04-22T03:27:51.380Z,6.30
2018-04-22T03:30:19.546Z,5.95
2018-04-22T03:32:47.842Z,7.10
2018-04-22T03:35:15.929Z,6.72
2018-04-22T03:37:44.223Z,6.15
2018-04-22T03:40:12.523Z,6.43
2018-04-22T03:42:40.731Z,6.65
2018-04-22T03:45:08.808Z,6.35
2018-04-22T03:47:37.013Z,7.03
2018-04-22T03:50:05.922Z,6.50
2018-04-22T03:52:34.004Z,6.97
2018-04-22T03:55:02.109Z,7.35
2018-04-22T03:57:30.199Z,5.85
2018-04-22T03:59:59.526Z,5.97
2018-04-22T04:02:27.605Z,6.72
2018-04-22T04:04:55.802Z,7.22
2018-04-22T04:07:23.907Z,6.47
2018-04-22T04:09:52.044Z,6.50
2018-04-22T04:12:20.482Z,6.60
2018-04-22T04:14:48.683Z,6.70
2018-04-22T04:17:16.880Z,7.35
2018-04-22T04:19:45.165Z,6.00
2018-04-22T04:22:13.368Z,6.47
2018-04-22T04:24:41.666Z,7.30
2018-04-22T04:27:09.760Z,6.82
2018-04-22T04:29:37.942Z,5.80
2018-04-22T04:32:06.142Z,6.90
2018-04-22T04:34:34.344Z,5.97
2018-04-22T04:37:02.540Z,7.12
2018-04-22T04:39:30.726Z,6.53
2018-04-22T04:41:58.926Z,6.65
2018-04-22T04:44:27.129Z,7.50
2018-04-22T04:46:55.207Z,6.30
2018-04-22T04:49:23.404Z,6.78
2018-04-22T04:51:52.141Z,7.32
2018-04-22T04:54:20.447Z,7.47
2018-04-22T04:56:48.804Z,6.72
2018-04-22T04:59:17.103Z,5.97
2018-04-22T05:01:45.407Z,6.20
2018-04-22T05:04:13.788Z,8.38
2018-04-22T05:06:41.900Z,6.68
2018-04-22T05:09:10.081Z,7.70
2018-04-22T05:11:38.168Z,6.78
2018-04-22T05:14:06.477Z,8.15
2018-04-22T05:16:34.578Z,6.82
2018-04-22T05:19:02.758Z,7.78
2018-04-22T05:21:30.949Z,7.53
2018-04-22T05:23:59.158Z,7.20
2018-04-22T05:26:27.338Z,7.80
2018-04-22T05:28:55.541Z,8.38
2018-04-22T05:31:23.841Z,7.35
2018-04-22T05:33:51.880Z,7.55
2018-04-22T05:36:20.021Z,6.62
2018-04-22T05:38:48.204Z,8.30
2018-04-22T05:41:16.518Z,9.45
2018-04-22T05:43:44.797Z,8.35
2018-04-22T05:46:12.911Z,8.00
2018-04-22T05:48:41.120Z,7.87
2018-04-22T05:51:09.288Z,7.32
2018-04-22T05:53:37.587Z,8.15
2018-04-22T05:56:05.671Z,8.45
2018-04-22T05:58:33.878Z,7.60
2018-04-22T06:01:02.067Z,8.48
2018-04-22T06:03:30.367Z,8.20
2018-04-22T06:05:58.359Z,8.13
2018-04-22T06:08:26.550Z,8.52
2018-04-22T06:10:54.950Z,8.05
2018-04-22T06:13:23.123Z,7.87
2018-04-22T06:15:51.286Z,8.13
2018-04-22T06:18:19.245Z,8.18
2018-04-22T06:20:47.423Z,7.00
2018-04-22T06:23:15.712Z,7.53
2018-04-22T06:25:44.224Z,7.05
2018-04-22T06:28:12.330Z,6.60
2018-04-22T06:30:40.508Z,6.70
2018-04-22T06:33:08.719Z,6.10
2018-04-22T06:35:36.887Z,5.95
2018-04-22T06:38:04.981Z,6.43
2018-04-22T06:40:33.188Z,6.60
2018-04-22T06:43:01.271Z,6.15
2018-04-22T06:45:29.455Z,6.65
2018-04-22T06:47:57.857Z,6.53
2018-04-22T06:50:26.152Z,5.28
2018-04-22T06:52:54.253Z,6.10
2018-04-22T06:55:22.441Z,5.78
2018-04-22T06:57:50.640Z,5.32
2018-04-22T07:00:18.784Z,5.75
2018-04-22T07:02:47.225Z,6.22
2018-04-22T07:05:15.949Z,5.75
2018-04-22T07:07:44.026Z,6.05
2018-04-22T07:10:12.223Z,6.25
2018-04-22T07:12:40.314Z,5.97
2018-04-22T07:15:08.513Z,5.45
2018-04-22T07:17:36.611Z,5.20
2018-04-22T07:20:04.800Z,5.50
2018-04-22T07:22:33.092Z,5.60
2018-04-22T07:25:01.293Z,5.70
2018-04-22T07:27:29.392Z,4.87
2018-04-22T07:29:57.786Z,4.80
2018-04-22T07:32:25.962Z,4.70
2018-04-22T07:34:54.182Z,5.47
2018-04-22T07:37:22.362Z,5.77
2018-04-22T07:39:50.561Z,5.27
2018-04-22T07:42:18.564Z,4.80
2018-04-22T07:44:46.842Z,4.50
2018-04-22T07:47:15.032Z,5.23
2018-04-22T07:49:43.227Z,4.37
2018-04-22T07:52:11.428Z,4.90
2018-04-22T07:54:39.622Z,4.97
2018-04-22T07:57:07.925Z,4.60
2018-04-22T07:59:36.100Z,4.37
2018-04-22T08:02:04.211Z,4.67
2018-04-22T08:04:32.408Z,4.33
2018-04-22T08:07:00.695Z,5.03
2018-04-22T08:09:28.895Z,4.93
2018-04-22T08:11:57.095Z,4.27
2018-04-22T08:14:25.299Z,5.27
2018-04-22T08:16:53.567Z,4.53
2018-04-22T08:19:21.768Z,4.20
2018-04-22T08:21:50.066Z,4.60
2018-04-22T08:24:18.171Z,4.20
2018-04-22T08:26:46.096Z,4.43
2018-04-22T08:29:14.241Z,4.23
2018-04-22T08:31:42.425Z,3.90
2018-04-22T08:34:10.521Z,4.07
2018-04-22T08:36:38.715Z,4.20
2018-04-22T08:39:06.905Z,4.63
2018-04-22T08:41:35.121Z,4.10
2018-04-22T08:44:03.224Z,3.60
2018-04-22T08:46:31.499Z,4.20
2018-04-22T08:48:59.802Z,3.80
2018-04-22T08:51:27.990Z,3.53
2018-04-22T08:53:56.079Z,4.37
2018-04-22T08:56:24.290Z,4.30
2018-04-22T08:58:52.472Z,4.20
2018-04-22T09:01:20.656Z,4.20
2018-04-22T09:03:48.852Z,4.33
2018-04-22T09:06:17.048Z,3.93
2018-04-22T09:08:45.068Z,4.73
2018-04-22T09:11:13.197Z,4.60
2018-04-22T09:13:41.338Z,4.00
2018-04-22T09:16:09.519Z,4.83
2018-04-22T09:18:37.618Z,4.50
2018-04-22T09:21:05.798Z,5.30
2018-04-22T09:23:33.892Z,5.10
2018-04-22T09:26:02.103Z,4.27
2018-04-22T09:28:30.394Z,4.43
2018-04-22T09:30:58.679Z,4.03
2018-04-22T09:33:26.887Z,4.50
2018-04-22T09:35:55.185Z,4.00
2018-04-22T09:38:23.269Z,3.90
2018-04-22T09:40:51.476Z,3.67
2018-04-22T09:43:19.656Z,4.87
2018-04-22T09:45:47.852Z,3.93
2018-04-22T09:48:16.040Z,4.62
2018-04-22T09:50:44.251Z,4.20
2018-04-22T09:53:12.350Z,4.33
2018-04-22T09:55:40.440Z,4.43
2018-04-22T09:58:08.722Z,4.30
2018-04-22T10:00:36.912Z,4.33
2018-04-22T10:03:05.120Z,4.53
2018-04-22T10:05:33.298Z,4.37
2018-04-22T10:08:01.494Z,4.03
2018-04-22T10:10:29.694Z,6.37
2018-04-22T10:12:57.893Z,5.00
2018-04-22T10:15:26.095Z,4.50
2018-04-22T10:17:54.168Z,4.10
2018-04-22T10:20:22.364Z,4.50
2018-04-22T10:22:50.463Z,3.97
2018-04-22T10:25:18.672Z,4.20
2018-04-22T10:27:46.933Z,4.03
2018-04-22T10:30:15.259Z,4.80
2018-04-22T10:32:43.438Z,4.10
2018-04-22T10:35:12.996Z,4.90
2018-04-22T10:37:40.995Z,4.67
2018-04-22T10:40:09.272Z,4.70
2018-04-22T10:42:37.457Z,4.90
2018-04-22T10:45:05.758Z,4.67
2018-04-22T10:47:33.945Z,4.70
2018-04-22T10:50:02.143Z,4.73
2018-04-22T10:52:30.344Z,4.40
2018-04-22T10:54:58.518Z,4.80
2018-04-22T10:57:26.617Z,4.17
2018-04-22T10:59:54.729Z,4.20
2018-04-22T11:02:22.798Z,4.70
2018-04-22T11:04:50.797Z,3.93
2018-04-22T11:07:19.046Z,5.10
2018-04-22T11:09:47.175Z,4.57
2018-04-22T11:12:15.367Z,4.03
2018-04-22T11:14:43.567Z,4.77
2018-04-22T11:17:11.767Z,4.67
2018-04-22T11:22:13.765Z,4.77
2018-04-22T11:24:41.967Z,5.60
2018-04-22T11:27:10.067Z,4.83
2018-04-22T11:29:38.146Z,5.30
2018-04-22T11:32:06.350Z,5.13
2018-04-22T11:34:34.452Z,5.63
2018-04-22T11:39:36.957Z,5.10
2018-04-22T11:42:04.903Z,5.80
2018-04-22T11:44:33.140Z,4.60
2018-04-22T11:47:01.241Z,4.83
2018-04-22T11:49:29.440Z,4.70
2018-04-22T11:51:57.443Z,4.80
2018-04-22T11:54:27.930Z,5.00
2018-04-22T11:56:56.176Z,5.17
2018-04-22T11:59:24.587Z,5.37
2018-04-22T12:01:52.966Z,5.40
2018-04-22T12:04:21.165Z,5.50
2018-04-22T12:06:49.346Z,5.07
2018-04-22T12:09:17.546Z,5.87
2018-04-22T12:11:45.840Z,5.10
2018-04-22T12:14:13.868Z,5.10
2018-04-22T12:16:42.128Z,5.27
2018-04-22T12:19:10.298Z,5.87
2018-04-22T12:21:38.207Z,5.90
2018-04-22T12:24:06.423Z,5.50
2018-04-22T12:26:34.510Z,4.77
2018-04-22T12:29:02.695Z,5.23
2018-04-22T12:31:30.798Z,5.60
2018-04-22T12:33:58.878Z,4.80
2018-04-22T12:36:26.978Z,5.20
2018-04-22T12:38:55.258Z,4.80
2018-04-22T12:41:23.359Z,5.27
2018-04-22T12:43:51.557Z,4.90
2018-04-22T12:46:19.857Z,4.90
2018-04-22T12:48:48.137Z,5.70
2018-04-22T12:51:16.135Z,4.93
2018-04-22T12:53:44.320Z,4.27
2018-04-22T12:56:12.419Z,4.70
2018-04-22T12:58:40.728Z,4.80
2018-04-22T13:01:08.808Z,4.00
2018-04-22T13:03:36.890Z,4.37
2018-04-22T13:06:04.869Z,5.40
2018-04-22T13:08:33.083Z,4.30
2018-04-22T13:11:01.188Z,4.37
2018-04-22T13:13:29.390Z,4.83
2018-04-22T13:15:57.463Z,4.20
2018-04-22T13:18:25.968Z,5.90
2018-04-22T13:20:54.144Z,4.77
2018-04-22T13:23:22.364Z,4.10
2018-04-22T13:25:50.568Z,4.70
2018-04-22T13:28:18.747Z,5.70
2018-04-22T13:30:46.949Z,5.50
2018-04-22T13:33:15.036Z,4.47
2018-04-22T13:35:44.047Z,4.80
2018-04-22T13:38:12.247Z,4.20
2018-04-22T13:40:40.341Z,5.63
2018-04-22T13:43:08.533Z,4.47
2018-04-22T13:45:36.633Z,4.50
2018-04-22T13:48:04.773Z,4.00
2018-04-22T13:50:32.900Z,4.23
2018-04-22T13:53:01.108Z,4.10
2018-04-22T13:55:29.300Z,4.87
2018-04-22T13:57:57.694Z,4.80
2018-04-22T14:00:25.899Z,4.60
2018-04-22T14:02:54.071Z,5.70
2018-04-22T14:05:22.171Z,7.80
2018-04-22T14:07:50.375Z,5.13
2018-04-22T14:10:18.465Z,9.47
2018-04-22T14:12:46.649Z,4.67
2018-04-22T14:15:14.952Z,4.50
2018-04-22T14:17:43.154Z,4.50
2018-04-22T14:20:11.225Z,3.30
2018-04-22T14:22:39.416Z,3.50
2018-04-22T14:25:07.533Z,3.80
2018-04-22T14:27:35.605Z,9.53
2018-04-22T14:30:03.825Z,5.73
2018-04-22T14:32:31.804Z,4.17
2018-04-22T14:34:59.984Z,4.43
2018-04-22T14:37:28.075Z,4.40
2018-04-22T14:39:56.277Z,3.77
2018-04-22T14:42:24.475Z,3.67
2018-04-22T14:44:52.685Z,3.40
2018-04-22T14:47:20.955Z,4.03
2018-04-22T14:49:49.156Z,3.90
2018-04-22T14:52:17.454Z,4.00
2018-04-22T14:54:45.655Z,3.73
2018-04-22T14:57:13.722Z,4.17
2018-04-22T14:59:41.931Z,4.70
2018-04-22T15:02:10.035Z,4.07
2018-04-22T15:04:38.240Z,3.53
2018-04-22T15:07:07.120Z,4.10
2018-04-22T15:09:35.333Z,3.33
2018-04-22T15:12:03.516Z,3.10
2018-04-22T15:14:31.571Z,4.10
2018-04-22T15:16:59.705Z,4.10
2018-04-22T15:19:27.924Z,3.37
2018-04-22T15:21:56.205Z,3.83
2018-04-22T15:24:24.486Z,4.00
2018-04-22T15:26:52.485Z,3.90
2018-04-22T15:29:20.685Z,3.80
2018-04-22T15:31:48.890Z,3.60
2018-04-22T15:34:17.165Z,3.70
2018-04-22T15:36:45.267Z,3.00
2018-04-22T15:39:13.613Z,3.43
2018-04-22T15:41:41.956Z,3.27
2018-04-22T15:44:10.077Z,3.50
2018-04-22T15:46:38.144Z,3.40
2018-04-22T15:49:06.329Z,3.60
2018-04-22T15:51:34.640Z,4.00
2018-04-22T15:54:03.958Z,3.47
2018-04-22T15:56:31.913Z,3.27
2018-04-22T15:59:00.243Z,3.00
2018-04-22T16:01:28.312Z,3.00
2018-04-22T16:03:56.622Z,3.63
2018-04-22T16:06:24.832Z,3.20
2018-04-22T16:08:52.942Z,3.40
2018-04-22T16:11:21.117Z,3.60
2018-04-22T16:13:49.293Z,3.20
2018-04-22T16:16:17.510Z,3.40
2018-04-22T16:18:45.693Z,3.60
2018-04-22T16:21:13.882Z,3.80
2018-04-22T16:23:42.089Z,3.30
2018-04-22T16:26:10.173Z,3.90
2018-04-22T16:28:38.470Z,3.93
2018-04-22T16:31:06.561Z,5.20
2018-04-22T16:33:34.760Z,3.97
2018-04-22T16:36:02.841Z,3.87
2018-04-22T16:38:30.940Z,4.40
2018-04-22T16:40:59.853Z,3.80
2018-04-22T16:43:27.941Z,3.83
2018-04-22T16:45:56.242Z,3.40
2018-04-22T16:48:24.323Z,4.30
2018-04-22T16:50:52.533Z,3.30
2018-04-22T16:53:20.608Z,3.47
2018-04-22T16:55:48.833Z,3.60
2018-04-22T16:58:17.002Z,3.83
2018-04-22T17:00:46.162Z,5.20
2018-04-22T17:03:14.331Z,4.33
2018-04-22T17:05:42.504Z,3.80
2018-04-22T17:08:10.603Z,3.13
2018-04-22T17:10:38.790Z,3.97
2018-04-22T17:13:06.990Z,3.33
2018-04-22T17:15:35.180Z,4.10
2018-04-22T17:18:03.285Z,4.10
2018-04-22T17:20:31.469Z,4.10
2018-04-22T17:22:59.561Z,3.70
2018-04-22T17:25:27.668Z,3.60
2018-04-22T17:27:55.845Z,3.60
2018-04-22T17:30:24.034Z,3.90
2018-04-22T17:32:52.757Z,4.30
2018-04-22T17:35:20.957Z,4.07
2018-04-22T17:37:49.141Z,3.97
2018-04-22T17:40:17.431Z,4.30
2018-04-22T17:42:45.521Z,3.87
2018-04-22T17:45:13.711Z,4.10
2018-04-22T17:47:41.920Z,4.27
2018-04-22T17:50:10.109Z,4.50
2018-04-22T17:52:38.310Z,4.90
2018-04-22T17:55:06.510Z,4.90
2018-04-22T17:57:34.590Z,5.00
2018-04-22T18:00:02.770Z,4.20
2018-04-22T18:02:30.870Z,3.70
2018-04-22T18:04:59.014Z,4.43
2018-04-22T18:07:26.950Z,4.70
2018-04-22T18:09:55.151Z,4.20
2018-04-22T18:12:23.242Z,4.30
2018-04-22T18:14:51.428Z,3.70
2018-04-22T18:17:19.425Z,4.13
2018-04-22T18:19:47.616Z,5.00
2018-04-22T18:22:15.605Z,4.80
2018-04-22T18:24:43.798Z,4.93
2018-04-22T18:27:11.898Z,4.93
2018-04-22T18:29:40.098Z,4.43
2018-04-22T18:32:08.201Z,3.87
2018-04-22T18:34:36.390Z,5.10
2018-04-22T18:37:04.469Z,5.33
2018-04-22T18:39:32.892Z,4.57
2018-04-22T18:42:01.162Z,4.50
2018-04-22T18:44:29.363Z,4.87
2018-04-22T18:46:57.561Z,4.90
2018-04-22T18:49:26.845Z,3.77
2018-04-22T18:51:54.966Z,4.73
2018-04-22T18:54:23.066Z,4.40
2018-04-22T18:56:51.145Z,4.70
2018-04-22T18:59:19.245Z,5.20
2018-04-22T19:01:47.445Z,6.60
2018-04-22T19:04:15.648Z,5.33
2018-04-22T19:06:44.045Z,5.33
2018-04-22T19:09:12.227Z,5.60
2018-04-22T19:11:40.428Z,6.00
2018-04-22T19:14:08.529Z,5.40
2018-04-22T19:16:37.936Z,4.93
2018-04-22T19:19:06.028Z,5.30
2018-04-22T19:21:34.327Z,5.70
2018-04-22T19:24:02.526Z,6.10
2018-04-22T19:26:31.027Z,6.33
2018-04-22T19:28:59.158Z,5.80
2018-04-22T19:31:27.206Z,5.83
2018-04-22T19:33:55.901Z,5.40
2018-04-22T19:36:24.100Z,6.53
2018-04-22T19:38:52.199Z,6.73
2018-04-22T19:41:20.505Z,8.60
2018-04-22T19:43:48.579Z,6.27
2018-04-22T19:46:16.779Z,6.33
2018-04-22T19:48:44.859Z,7.37
2018-04-22T19:51:13.058Z,5.33
2018-04-22T19:53:41.460Z,5.83
2018-04-22T19:56:09.760Z,6.72
2018-04-22T19:58:38.660Z,7.32
2018-04-22T20:01:06.902Z,10.05
2018-04-22T20:03:34.999Z,9.20
2018-04-22T20:06:03.353Z,7.93
2018-04-22T20:08:31.460Z,7.57
2018-04-22T20:10:59.621Z,6.78
2018-04-22T20:13:27.621Z,6.03
2018-04-22T20:15:55.821Z,6.62
2018-04-22T20:18:23.921Z,5.50
2018-04-22T20:20:52.321Z,5.78
2018-04-22T20:23:20.522Z,5.62
2018-04-22T20:25:48.705Z,4.95
2018-04-22T20:28:16.905Z,4.78
2018-04-22T20:30:44.985Z,4.78
2018-04-22T20:33:13.085Z,5.30
2018-04-22T20:35:41.286Z,5.35
2018-04-22T20:38:09.366Z,6.20
2018-04-22T20:40:37.566Z,5.62
2018-04-22T20:43:05.769Z,5.95
2018-04-22T20:45:33.966Z,5.40
2018-04-22T20:48:02.042Z,6.20
2018-04-22T20:50:30.244Z,5.50
2018-04-22T20:52:58.326Z,5.50
2018-04-22T20:55:26.326Z,5.35
2018-04-22T20:57:54.425Z,5.85
2018-04-22T21:00:22.605Z,5.90
2018-04-22T21:02:50.704Z,6.03
2018-04-22T21:05:18.803Z,6.40
2018-04-22T21:07:48.225Z,6.12
2018-04-22T21:10:16.306Z,6.10
2018-04-22T21:12:44.602Z,6.80
2018-04-22T21:15:12.709Z,6.20
2018-04-22T21:17:40.889Z,5.72
2018-04-22T21:20:08.990Z,6.35
2018-04-22T21:22:37.187Z,5.28
2018-04-22T21:25:05.268Z,6.40
2018-04-22T21:27:33.476Z,5.70
2018-04-22T21:30:01.543Z,5.57
2018-04-22T21:32:29.739Z,6.00
2018-04-22T21:34:57.946Z,6.43
2018-04-22T21:37:26.497Z,5.35
2018-04-22T21:39:54.629Z,5.70
2018-04-22T21:42:24.811Z,5.85
2018-04-22T21:44:53.882Z,4.40
2018-04-22T21:47:22.284Z,5.25
2018-04-22T21:49:51.292Z,5.10
2018-04-22T21:52:19.600Z,5.27
2018-04-22T21:54:47.802Z,5.80
2018-04-22T21:57:15.974Z,6.35
2018-04-22T21:59:44.081Z,5.87
2018-04-22T22:02:12.889Z,4.85
2018-04-22T22:04:41.011Z,4.97
2018-04-22T22:07:09.180Z,5.72
2018-04-22T22:09:37.270Z,5.45
2018-04-22T22:12:05.325Z,4.97
2018-04-22T22:14:33.361Z,5.15
2018-04-22T22:17:01.639Z,5.30
2018-04-22T22:19:29.639Z,5.00
2018-04-22T22:21:57.848Z,4.90
2018-04-22T22:24:25.909Z,6.12
2018-04-22T22:26:54.116Z,5.10
2018-04-22T22:29:22.211Z,5.22
2018-04-22T22:31:50.402Z,5.10
2018-04-22T22:34:18.503Z,4.95
2018-04-22T22:36:46.682Z,5.45
2018-04-22T22:39:14.883Z,5.30
2018-04-22T22:41:43.091Z,5.43
2018-04-22T22:44:11.079Z,5.25
2018-04-22T22:46:39.460Z,5.57
2018-04-22T22:49:07.668Z,5.70
2018-04-22T22:51:35.969Z,4.97
2018-04-22T22:54:04.048Z,5.37
2018-04-22T22:56:32.109Z,5.10
2018-04-22T22:59:00.129Z,5.05
2018-04-22T23:01:28.431Z,6.12
2018-04-22T23:03:56.628Z,5.22
2018-04-22T23:06:24.829Z,5.55
2018-04-22T23:08:53.108Z,5.72
2018-04-22T23:11:21.216Z,5.37
2018-04-22T23:13:49.308Z,5.18
2018-04-22T23:16:17.603Z,5.55
2018-04-22T23:18:45.684Z,5.10
2018-04-22T23:21:13.783Z,5.60
2018-04-22T23:23:41.982Z,5.37
2018-04-22T23:26:10.162Z,5.28
2018-04-22T23:28:38.372Z,5.93
2018-04-22T23:31:06.568Z,5.85
2018-04-22T23:33:34.762Z,5.95
2018-04-22T23:36:02.840Z,5.62
2018-04-22T23:38:31.043Z,6.00
2018-04-22T23:40:59.059Z,4.62
2018-04-22T23:43:27.080Z,5.05
2018-04-22T23:45:55.205Z,6.72
2018-04-22T23:48:23.501Z,5.93
2018-04-22T23:50:51.601Z,6.03
2018-04-22T23:53:19.799Z,5.05
2018-04-22T23:55:47.897Z,4.80
2018-04-22T23:58:16.078Z,5.93
